sensor_id;sensor_type;location;lat;lon;timestamp;P1;durP1;ratioP1;P2;durP2;ratioP2
25331;SDS011;13284;52.748;13.452;2023-07-20T00:01:27;4.13;;;3.83;;
25331;SDS011;13284;52.748;13.452;2023-07-20T00:03:53;4.17;;;3.50;;
25331;SDS011;13284;52.748;13.452;2023-07-20T00:06:21;4.77;;;4.33;;
25331;SDS011;13284;52.748;13.452;2023-07-20T00:08:48;6.50;;;6.00;;
25331;SDS011;13284;52.748;13.452;2023-07-20T00:11:14;4.30;;;3.90;;
25331;SDS011;13284;52.748;13.452;2023-07-20T00:13:40;4.87;;;4.40;;
25331;SDS011;13284;52.748;13.452;2023-07-20T00:16:06;4.70;;;3.60;;
25331;SDS011;13284;52.748;13.452;2023-07-20T00:18:31;4.00;;;3.70;;
25331;SDS011;13284;52.748;13.452;2023-07-20T00:20:57;4.20;;;3.90;;
25331;SDS011;13284;52.748;13.452;2023-07-20T00:23:24;7.63;;;4.57;;
25331;SDS011;13284;52.748;13.452;2023-07-20T00:25:50;4.47;;;4.07;;
25331;SDS011;13284;52.748;13.452;2023-07-20T00:28:16;4.50;;;4.10;;
25331;SDS011;13284;52.748;13.452;2023-07-20T00:30:41;4.47;;;3.80;;
25331;SDS011;13284;52.748;13.452;2023-07-20T00:33:09;5.07;;;4.50;;
25331;SDS011;13284;52.748;13.452;2023-07-20T00:35:36;4.57;;;4.17;;
25331;SDS011;13284;52.748;13.452;2023-07-20T00:38:02;4.80;;;4.40;;
25331;SDS011;13284;52.748;13.452;2023-07-20T00:40:28;7.80;;;4.90;;
25331;SDS011;13284;52.748;13.452;2023-07-20T00:43:00;4.87;;;4.40;;
25331;SDS011;13284;52.748;13.452;2023-07-20T00:45:25;5.13;;;4.27;;
25331;SDS011;13284;52.748;13.452;2023-07-20T00:47:51;5.30;;;4.60;;
25331;SDS011;13284;52.748;13.452;2023-07-20T00:50:17;6.77;;;4.07;;
25331;SDS011;13284;52.748;13.452;2023-07-20T00:52:42;4.80;;;4.40;;
25331;SDS011;13284;52.748;13.452;2023-07-20T00:55:08;4.83;;;4.43;;
25331;SDS011;13284;52.748;13.452;2023-07-20T00:57:35;5.00;;;4.50;;
25331;SDS011;13284;52.748;13.452;2023-07-20T01:00:00;4.90;;;3.93;;
25331;SDS011;13284;52.748;13.452;2023-07-20T01:02:26;5.30;;;4.90;;
25331;SDS011;13284;52.748;13.452;2023-07-20T01:04:51;5.10;;;4.60;;
25331;SDS011;13284;52.748;13.452;2023-07-20T01:07:25;4.90;;;4.50;;
25331;SDS011;13284;52.748;13.452;2023-07-20T01:12:58;5.20;;;4.80;;
25331;SDS011;13284;52.748;13.452;2023-07-20T01:15:26;5.50;;;4.90;;
25331;SDS011;13284;52.748;13.452;2023-07-20T01:17:52;6.13;;;5.63;;
25331;SDS011;13284;52.748;13.452;2023-07-20T01:20:19;5.30;;;4.80;;
25331;SDS011;13284;52.748;13.452;2023-07-20T01:23:00;6.43;;;5.80;;
25331;SDS011;13284;52.748;13.452;2023-07-20T01:28:53;7.20;;;6.50;;
25331;SDS011;13284;52.748;13.452;2023-07-20T01:31:41;7.97;;;7.00;;
25331;SDS011;13284;52.748;13.452;2023-07-20T01:34:09;7.50;;;6.80;;
25331;SDS011;13284;52.748;13.452;2023-07-20T01:36:38;8.80;;;7.40;;
25331;SDS011;13284;52.748;13.452;2023-07-20T01:39:05;8.20;;;7.40;;
25331;SDS011;13284;52.748;13.452;2023-07-20T01:41:32;7.90;;;7.10;;
25331;SDS011;13284;52.748;13.452;2023-07-20T01:43:58;10.80;;;7.40;;
25331;SDS011;13284;52.748;13.452;2023-07-20T01:46:27;9.67;;;7.90;;
25331;SDS011;13284;52.748;13.452;2023-07-20T01:48:52;11.00;;;8.40;;
25331;SDS011;13284;52.748;13.452;2023-07-20T01:51:19;10.33;;;7.87;;
25331;SDS011;13284;52.748;13.452;2023-07-20T01:53:44;9.40;;;7.70;;
25331;SDS011;13284;52.748;13.452;2023-07-20T01:56:10;9.87;;;7.67;;
25331;SDS011;13284;52.748;13.452;2023-07-20T01:58:37;8.77;;;7.70;;
25331;SDS011;13284;52.748;13.452;2023-07-20T02:01:03;11.67;;;7.90;;
25331;SDS011;13284;52.748;13.452;2023-07-20T02:03:28;9.83;;;7.93;;
25331;SDS011;13284;52.748;13.452;2023-07-20T02:05:54;9.17;;;8.27;;
25331;SDS011;13284;52.748;13.452;2023-07-20T02:08:19;10.87;;;8.37;;
25331;SDS011;13284;52.748;13.452;2023-07-20T02:10:46;9.43;;;8.43;;
25331;SDS011;13284;52.748;13.452;2023-07-20T02:13:12;12.23;;;8.57;;
25331;SDS011;13284;52.748;13.452;2023-07-20T02:15:38;13.10;;;10.10;;
25331;SDS011;13284;52.748;13.452;2023-07-20T02:18:03;9.13;;;8.20;;
25331;SDS011;13284;52.748;13.452;2023-07-20T02:20:29;8.97;;;7.90;;
25331;SDS011;13284;52.748;13.452;2023-07-20T02:22:54;11.00;;;8.77;;
25331;SDS011;13284;52.748;13.452;2023-07-20T02:25:20;9.80;;;8.10;;
25331;SDS011;13284;52.748;13.452;2023-07-20T02:27:46;11.23;;;7.83;;
25331;SDS011;13284;52.748;13.452;2023-07-20T02:30:12;9.37;;;8.17;;
25331;SDS011;13284;52.748;13.452;2023-07-20T02:32:38;8.23;;;7.33;;
25331;SDS011;13284;52.748;13.452;2023-07-20T02:35:04;12.37;;;7.63;;
25331;SDS011;13284;52.748;13.452;2023-07-20T02:37:31;9.00;;;7.70;;
25331;SDS011;13284;52.748;13.452;2023-07-20T02:39:56;10.17;;;7.73;;
25331;SDS011;13284;52.748;13.452;2023-07-20T02:42:22;9.53;;;8.40;;
25331;SDS011;13284;52.748;13.452;2023-07-20T02:44:49;8.43;;;7.50;;
25331;SDS011;13284;52.748;13.452;2023-07-20T02:47:17;9.40;;;8.27;;
25331;SDS011;13284;52.748;13.452;2023-07-20T02:49:43;12.23;;;9.00;;
25331;SDS011;13284;52.748;13.452;2023-07-20T02:52:08;11.20;;;8.67;;
25331;SDS011;13284;52.748;13.452;2023-07-20T02:54:34;8.53;;;7.73;;
25331;SDS011;13284;52.748;13.452;2023-07-20T02:56:59;11.60;;;9.10;;
25331;SDS011;13284;52.748;13.452;2023-07-20T02:59:26;13.83;;;9.53;;
25331;SDS011;13284;52.748;13.452;2023-07-20T03:01:51;9.80;;;8.77;;
25331;SDS011;13284;52.748;13.452;2023-07-20T03:04:17;10.33;;;9.27;;
25331;SDS011;13284;52.748;13.452;2023-07-20T03:06:42;12.73;;;9.60;;
25331;SDS011;13284;52.748;13.452;2023-07-20T03:09:08;11.87;;;9.33;;
25331;SDS011;13284;52.748;13.452;2023-07-20T03:11:34;11.03;;;9.20;;
25331;SDS011;13284;52.748;13.452;2023-07-20T03:13:59;12.10;;;10.03;;
25331;SDS011;13284;52.748;13.452;2023-07-20T03:16:25;11.50;;;9.70;;
25331;SDS011;13284;52.748;13.452;2023-07-20T03:18:51;14.00;;;10.63;;
25331;SDS011;13284;52.748;13.452;2023-07-20T03:21:17;10.80;;;9.00;;
25331;SDS011;13284;52.748;13.452;2023-07-20T03:23:43;12.20;;;9.70;;
25331;SDS011;13284;52.748;13.452;2023-07-20T03:26:08;14.00;;;10.33;;
25331;SDS011;13284;52.748;13.452;2023-07-20T03:28:34;11.20;;;10.00;;
25331;SDS011;13284;52.748;13.452;2023-07-20T03:31:00;11.60;;;10.40;;
25331;SDS011;13284;52.748;13.452;2023-07-20T03:33:27;13.87;;;9.87;;
25331;SDS011;13284;52.748;13.452;2023-07-20T03:35:54;11.93;;;9.90;;
25331;SDS011;13284;52.748;13.452;2023-07-20T03:38:20;17.33;;;10.93;;
25331;SDS011;13284;52.748;13.452;2023-07-20T03:40:52;13.73;;;10.50;;
25331;SDS011;13284;52.748;13.452;2023-07-20T03:43:22;13.30;;;10.57;;
25331;SDS011;13284;52.748;13.452;2023-07-20T03:45:49;11.50;;;9.97;;
25331;SDS011;13284;52.748;13.452;2023-07-20T03:48:15;12.40;;;10.03;;
25331;SDS011;13284;52.748;13.452;2023-07-20T03:50:41;12.70;;;9.67;;
25331;SDS011;13284;52.748;13.452;2023-07-20T03:53:06;12.63;;;9.47;;
25331;SDS011;13284;52.748;13.452;2023-07-20T03:55:32;14.17;;;9.97;;
25331;SDS011;13284;52.748;13.452;2023-07-20T03:57:57;10.77;;;9.53;;
25331;SDS011;13284;52.748;13.452;2023-07-20T04:00:23;14.03;;;10.10;;
25331;SDS011;13284;52.748;13.452;2023-07-20T04:02:49;14.17;;;9.40;;
25331;SDS011;13284;52.748;13.452;2023-07-20T04:05:14;12.10;;;9.50;;
25331;SDS011;13284;52.748;13.452;2023-07-20T04:07:40;14.93;;;10.93;;
25331;SDS011;13284;52.748;13.452;2023-07-20T04:10:06;11.37;;;10.00;;
25331;SDS011;13284;52.748;13.452;2023-07-20T04:12:31;11.63;;;9.93;;
25331;SDS011;13284;52.748;13.452;2023-07-20T04:14:57;10.50;;;9.17;;
25331;SDS011;13284;52.748;13.452;2023-07-20T04:17:22;9.83;;;8.83;;
25331;SDS011;13284;52.748;13.452;2023-07-20T04:19:48;11.00;;;9.13;;
25331;SDS011;13284;52.748;13.452;2023-07-20T04:22:13;8.80;;;7.90;;
25331;SDS011;13284;52.748;13.452;2023-07-20T04:24:40;11.63;;;8.97;;
25331;SDS011;13284;52.748;13.452;2023-07-20T04:27:07;10.60;;;8.70;;
25331;SDS011;13284;52.748;13.452;2023-07-20T04:29:33;10.70;;;9.07;;
25331;SDS011;13284;52.748;13.452;2023-07-20T04:31:58;14.80;;;11.77;;
25331;SDS011;13284;52.748;13.452;2023-07-20T04:34:24;15.53;;;11.70;;
25331;SDS011;13284;52.748;13.452;2023-07-20T04:36:49;9.40;;;8.27;;
25331;SDS011;13284;52.748;13.452;2023-07-20T04:39:15;10.13;;;9.10;;
25331;SDS011;13284;52.748;13.452;2023-07-20T04:41:40;10.03;;;8.93;;
25331;SDS011;13284;52.748;13.452;2023-07-20T04:44:06;10.97;;;9.10;;
25331;SDS011;13284;52.748;13.452;2023-07-20T04:46:31;11.17;;;9.50;;
25331;SDS011;13284;52.748;13.452;2023-07-20T04:48:56;9.47;;;8.47;;
25331;SDS011;13284;52.748;13.452;2023-07-20T04:51:22;10.37;;;8.87;;
25331;SDS011;13284;52.748;13.452;2023-07-20T04:53:51;8.60;;;7.80;;
25331;SDS011;13284;52.748;13.452;2023-07-20T04:56:17;10.50;;;7.60;;
25331;SDS011;13284;52.748;13.452;2023-07-20T04:58:42;9.20;;;8.13;;
25331;SDS011;13284;52.748;13.452;2023-07-20T05:01:08;8.50;;;7.60;;
25331;SDS011;13284;52.748;13.452;2023-07-20T05:03:33;10.03;;;7.10;;
25331;SDS011;13284;52.748;13.452;2023-07-20T05:05:59;8.07;;;7.23;;
25331;SDS011;13284;52.748;13.452;2023-07-20T05:08:24;7.83;;;7.13;;
25331;SDS011;13284;52.748;13.452;2023-07-20T05:10:50;7.93;;;7.13;;
25331;SDS011;13284;52.748;13.452;2023-07-20T05:13:16;6.80;;;6.17;;
25331;SDS011;13284;52.748;13.452;2023-07-20T05:15:41;7.47;;;6.77;;
25331;SDS011;13284;52.748;13.452;2023-07-20T05:18:07;10.00;;;7.90;;
25331;SDS011;13284;52.748;13.452;2023-07-20T05:20:33;7.70;;;6.70;;
25331;SDS011;13284;52.748;13.452;2023-07-20T05:22:59;8.97;;;6.67;;
25331;SDS011;13284;52.748;13.452;2023-07-20T05:25:26;8.10;;;6.80;;
25331;SDS011;13284;52.748;13.452;2023-07-20T05:27:52;7.70;;;6.67;;
25331;SDS011;13284;52.748;13.452;2023-07-20T05:30:17;8.87;;;7.90;;
25331;SDS011;13284;52.748;13.452;2023-07-20T05:32:43;7.73;;;6.83;;
25331;SDS011;13284;52.748;13.452;2023-07-20T05:35:12;7.33;;;6.57;;
25331;SDS011;13284;52.748;13.452;2023-07-20T05:37:38;9.80;;;6.80;;
25331;SDS011;13284;52.748;13.452;2023-07-20T05:40:04;9.20;;;7.80;;
25331;SDS011;13284;52.748;13.452;2023-07-20T05:42:30;7.00;;;6.30;;
25331;SDS011;13284;52.748;13.452;2023-07-20T05:44:55;7.30;;;6.27;;
25331;SDS011;13284;52.748;13.452;2023-07-20T05:47:21;6.23;;;5.60;;
25331;SDS011;13284;52.748;13.452;2023-07-20T05:49:46;7.50;;;6.60;;
25331;SDS011;13284;52.748;13.452;2023-07-20T05:52:12;6.20;;;5.60;;
25331;SDS011;13284;52.748;13.452;2023-07-20T05:54:38;6.70;;;6.03;;
25331;SDS011;13284;52.748;13.452;2023-07-20T05:57:04;7.20;;;6.33;;
25331;SDS011;13284;52.748;13.452;2023-07-20T05:59:29;6.80;;;6.10;;
25331;SDS011;13284;52.748;13.452;2023-07-20T06:01:55;7.30;;;6.60;;
25331;SDS011;13284;52.748;13.452;2023-07-20T06:04:21;6.37;;;5.77;;
25331;SDS011;13284;52.748;13.452;2023-07-20T06:06:46;7.70;;;6.57;;
25331;SDS011;13284;52.748;13.452;2023-07-20T06:09:12;7.80;;;7.00;;
25331;SDS011;13284;52.748;13.452;2023-07-20T06:11:38;9.73;;;6.13;;
25331;SDS011;13284;52.748;13.452;2023-07-20T06:14:04;6.97;;;6.27;;
25331;SDS011;13284;52.748;13.452;2023-07-20T06:16:30;6.60;;;6.00;;
25331;SDS011;13284;52.748;13.452;2023-07-20T06:18:55;6.77;;;6.07;;
25331;SDS011;13284;52.748;13.452;2023-07-20T06:21:21;5.27;;;4.80;;
25331;SDS011;13284;52.748;13.452;2023-07-20T06:23:47;4.37;;;4.00;;
25331;SDS011;13284;52.748;13.452;2023-07-20T06:26:12;5.40;;;5.00;;
25331;SDS011;13284;52.748;13.452;2023-07-20T06:28:38;5.63;;;5.00;;
25331;SDS011;13284;52.748;13.452;2023-07-20T06:31:03;4.50;;;3.77;;
25331;SDS011;13284;52.748;13.452;2023-07-20T06:33:29;3.43;;;3.13;;
25331;SDS011;13284;52.748;13.452;2023-07-20T06:35:55;3.87;;;3.50;;
25331;SDS011;13284;52.748;13.452;2023-07-20T06:38:22;3.40;;;3.20;;
25331;SDS011;13284;52.748;13.452;2023-07-20T06:40:48;2.90;;;2.70;;
25331;SDS011;13284;52.748;13.452;2023-07-20T06:43:15;3.77;;;3.47;;
25331;SDS011;13284;52.748;13.452;2023-07-20T06:45:41;4.30;;;3.47;;
25331;SDS011;13284;52.748;13.452;2023-07-20T06:48:06;5.00;;;3.03;;
25331;SDS011;13284;52.748;13.452;2023-07-20T06:50:32;3.23;;;2.93;;
25331;SDS011;13284;52.748;13.452;2023-07-20T06:52:57;2.87;;;2.67;;
25331;SDS011;13284;52.748;13.452;2023-07-20T06:55:23;2.70;;;2.50;;
25331;SDS011;13284;52.748;13.452;2023-07-20T06:57:49;4.30;;;3.70;;
25331;SDS011;13284;52.748;13.452;2023-07-20T07:00:15;4.70;;;4.30;;
25331;SDS011;13284;52.748;13.452;2023-07-20T07:02:40;3.43;;;3.13;;
25331;SDS011;13284;52.748;13.452;2023-07-20T07:05:06;3.53;;;3.23;;
25331;SDS011;13284;52.748;13.452;2023-07-20T07:07:31;2.90;;;2.70;;
25331;SDS011;13284;52.748;13.452;2023-07-20T07:09:57;2.43;;;2.23;;
25331;SDS011;13284;52.748;13.452;2023-07-20T07:12:22;1.97;;;1.80;;
25331;SDS011;13284;52.748;13.452;2023-07-20T07:14:48;2.17;;;2.00;;
25331;SDS011;13284;52.748;13.452;2023-07-20T07:17:13;2.00;;;1.90;;
25331;SDS011;13284;52.748;13.452;2023-07-20T07:19:39;1.93;;;1.83;;
25331;SDS011;13284;52.748;13.452;2023-07-20T07:22:05;1.63;;;1.53;;
25331;SDS011;13284;52.748;13.452;2023-07-20T07:24:31;1.70;;;1.60;;
25331;SDS011;13284;52.748;13.452;2023-07-20T07:26:59;1.67;;;1.40;;
25331;SDS011;13284;52.748;13.452;2023-07-20T07:29:25;1.60;;;1.47;;
25331;SDS011;13284;52.748;13.452;2023-07-20T07:31:50;1.80;;;1.70;;
25331;SDS011;13284;52.748;13.452;2023-07-20T07:34:16;2.20;;;1.20;;
25331;SDS011;13284;52.748;13.452;2023-07-20T07:36:42;1.47;;;1.37;;
25331;SDS011;13284;52.748;13.452;2023-07-20T07:39:08;1.30;;;1.30;;
25331;SDS011;13284;52.748;13.452;2023-07-20T07:41:34;1.30;;;1.20;;
25331;SDS011;13284;52.748;13.452;2023-07-20T07:44:00;1.10;;;1.00;;
25331;SDS011;13284;52.748;13.452;2023-07-20T07:46:25;1.37;;;1.10;;
25331;SDS011;13284;52.748;13.452;2023-07-20T07:48:51;1.30;;;1.03;;
25331;SDS011;13284;52.748;13.452;2023-07-20T07:51:16;1.10;;;1.00;;
25331;SDS011;13284;52.748;13.452;2023-07-20T07:53:42;0.97;;;0.87;;
25331;SDS011;13284;52.748;13.452;2023-07-20T07:56:08;0.70;;;0.70;;
25331;SDS011;13284;52.748;13.452;2023-07-20T07:58:34;0.70;;;0.70;;
25331;SDS011;13284;52.748;13.452;2023-07-20T08:01:00;0.97;;;0.97;;
25331;SDS011;13284;52.748;13.452;2023-07-20T08:03:25;0.93;;;0.80;;
25331;SDS011;13284;52.748;13.452;2023-07-20T08:05:51;1.03;;;0.60;;
25331;SDS011;13284;52.748;13.452;2023-07-20T08:08:20;0.70;;;0.70;;
25331;SDS011;13284;52.748;13.452;2023-07-20T08:10:46;2.40;;;0.90;;
25331;SDS011;13284;52.748;13.452;2023-07-20T08:13:12;1.00;;;1.00;;
25331;SDS011;13284;52.748;13.452;2023-07-20T08:15:37;0.80;;;0.80;;
25331;SDS011;13284;52.748;13.452;2023-07-20T08:18:03;1.00;;;0.80;;
25331;SDS011;13284;52.748;13.452;2023-07-20T08:20:29;0.87;;;0.67;;
25331;SDS011;13284;52.748;13.452;2023-07-20T08:22:54;0.70;;;0.70;;
25331;SDS011;13284;52.748;13.452;2023-07-20T08:25:24;1.30;;;1.20;;
25331;SDS011;13284;52.748;13.452;2023-07-20T08:27:50;1.53;;;1.43;;
25331;SDS011;13284;52.748;13.452;2023-07-20T08:30:16;2.63;;;1.13;;
25331;SDS011;13284;52.748;13.452;2023-07-20T08:32:42;2.30;;;0.80;;
25331;SDS011;13284;52.748;13.452;2023-07-20T08:35:08;3.50;;;0.97;;
25331;SDS011;13284;52.748;13.452;2023-07-20T08:37:33;1.77;;;0.93;;
25331;SDS011;13284;52.748;13.452;2023-07-20T08:39:59;1.00;;;0.70;;
25331;SDS011;13284;52.748;13.452;2023-07-20T08:42:25;1.73;;;0.77;;
25331;SDS011;13284;52.748;13.452;2023-07-20T08:44:51;1.20;;;1.10;;
25331;SDS011;13284;52.748;13.452;2023-07-20T08:47:18;1.30;;;1.00;;
25331;SDS011;13284;52.748;13.452;2023-07-20T08:49:47;2.67;;;0.90;;
25331;SDS011;13284;52.748;13.452;2023-07-20T08:52:13;8.80;;;1.40;;
25331;SDS011;13284;52.748;13.452;2023-07-20T08:54:39;1.07;;;1.07;;
25331;SDS011;13284;52.748;13.452;2023-07-20T08:57:05;0.97;;;0.90;;
25331;SDS011;13284;52.748;13.452;2023-07-20T08:59:31;1.33;;;1.10;;
25331;SDS011;13284;52.748;13.452;2023-07-20T09:02:00;2.20;;;1.27;;
25331;SDS011;13284;52.748;13.452;2023-07-20T09:04:25;2.57;;;1.17;;
25331;SDS011;13284;52.748;13.452;2023-07-20T09:06:51;1.70;;;0.90;;
25331;SDS011;13284;52.748;13.452;2023-07-20T09:09:17;1.63;;;1.07;;
25331;SDS011;13284;52.748;13.452;2023-07-20T09:11:42;1.00;;;1.00;;
25331;SDS011;13284;52.748;13.452;2023-07-20T09:14:11;1.23;;;1.07;;
25331;SDS011;13284;52.748;13.452;2023-07-20T09:16:52;1.57;;;1.03;;
25331;SDS011;13284;52.748;13.452;2023-07-20T09:19:19;0.80;;;0.80;;
25331;SDS011;13284;52.748;13.452;2023-07-20T09:21:49;1.50;;;1.40;;
25331;SDS011;13284;52.748;13.452;2023-07-20T09:24:16;1.10;;;1.00;;
25331;SDS011;13284;52.748;13.452;2023-07-20T09:26:43;1.77;;;0.90;;
25331;SDS011;13284;52.748;13.452;2023-07-20T09:29:09;1.10;;;1.00;;
25331;SDS011;13284;52.748;13.452;2023-07-20T09:31:36;1.40;;;1.00;;
25331;SDS011;13284;52.748;13.452;2023-07-20T09:34:01;1.27;;;1.00;;
25331;SDS011;13284;52.748;13.452;2023-07-20T09:36:28;1.40;;;0.93;;
25331;SDS011;13284;52.748;13.452;2023-07-20T09:38:54;1.30;;;1.20;;
25331;SDS011;13284;52.748;13.452;2023-07-20T09:41:20;1.40;;;1.30;;
25331;SDS011;13284;52.748;13.452;2023-07-20T09:43:46;3.80;;;1.30;;
25331;SDS011;13284;52.748;13.452;2023-07-20T09:46:12;1.37;;;1.00;;
25331;SDS011;13284;52.748;13.452;2023-07-20T09:48:38;1.40;;;1.30;;
25331;SDS011;13284;52.748;13.452;2023-07-20T09:51:04;1.33;;;1.27;;
25331;SDS011;13284;52.748;13.452;2023-07-20T09:53:32;1.50;;;1.10;;
25331;SDS011;13284;52.748;13.452;2023-07-20T09:55:58;1.10;;;1.00;;
25331;SDS011;13284;52.748;13.452;2023-07-20T09:58:25;2.43;;;1.20;;
25331;SDS011;13284;52.748;13.452;2023-07-20T10:00:52;1.43;;;1.00;;
25331;SDS011;13284;52.748;13.452;2023-07-20T10:03:22;2.30;;;0.83;;
25331;SDS011;13284;52.748;13.452;2023-07-20T10:05:56;1.77;;;1.00;;
25331;SDS011;13284;52.748;13.452;2023-07-20T10:08:26;1.47;;;0.90;;
25331;SDS011;13284;52.748;13.452;2023-07-20T10:10:54;4.00;;;0.90;;
25331;SDS011;13284;52.748;13.452;2023-07-20T10:13:26;0.93;;;0.93;;
25331;SDS011;13284;52.748;13.452;2023-07-20T10:15:54;1.37;;;1.20;;
25331;SDS011;13284;52.748;13.452;2023-07-20T10:18:24;1.10;;;1.10;;
25331;SDS011;13284;52.748;13.452;2023-07-20T10:20:54;1.50;;;1.40;;
25331;SDS011;13284;52.748;13.452;2023-07-20T10:23:22;1.43;;;0.70;;
25331;SDS011;13284;52.748;13.452;2023-07-20T10:25:48;1.47;;;0.90;;
25331;SDS011;13284;52.748;13.452;2023-07-20T10:28:15;1.13;;;1.03;;
25331;SDS011;13284;52.748;13.452;2023-07-20T10:30:41;0.80;;;0.80;;
25331;SDS011;13284;52.748;13.452;2023-07-20T10:33:08;1.00;;;0.80;;
25331;SDS011;13284;52.748;13.452;2023-07-20T10:41:19;1.43;;;0.80;;
25331;SDS011;13284;52.748;13.452;2023-07-20T10:43:46;1.40;;;0.77;;
25331;SDS011;13284;52.748;13.452;2023-07-20T10:46:13;0.97;;;0.90;;
25331;SDS011;13284;52.748;13.452;2023-07-20T10:51:24;0.67;;;0.67;;
25331;SDS011;13284;52.748;13.452;2023-07-20T10:53:49;0.67;;;0.67;;
25331;SDS011;13284;52.748;13.452;2023-07-20T10:56:19;0.70;;;0.70;;
25331;SDS011;13284;52.748;13.452;2023-07-20T10:58:45;1.37;;;0.50;;
25331;SDS011;13284;52.748;13.452;2023-07-20T11:01:17;0.73;;;0.60;;
25331;SDS011;13284;52.748;13.452;2023-07-20T11:03:42;0.80;;;0.73;;
25331;SDS011;13284;52.748;13.452;2023-07-20T11:06:36;0.70;;;0.70;;
25331;SDS011;13284;52.748;13.452;2023-07-20T11:09:15;1.20;;;1.10;;
25331;SDS011;13284;52.748;13.452;2023-07-20T11:11:50;0.80;;;0.80;;
25331;SDS011;13284;52.748;13.452;2023-07-20T11:14:25;0.93;;;0.73;;
25331;SDS011;13284;52.748;13.452;2023-07-20T11:16:52;0.67;;;0.67;;
25331;SDS011;13284;52.748;13.452;2023-07-20T11:19:19;1.13;;;0.50;;
25331;SDS011;13284;52.748;13.452;2023-07-20T11:21:50;1.73;;;1.00;;
25331;SDS011;13284;52.748;13.452;2023-07-20T11:24:20;0.70;;;0.70;;
25331;SDS011;13284;52.748;13.452;2023-07-20T11:26:47;1.30;;;1.20;;
25331;SDS011;13284;52.748;13.452;2023-07-20T11:29:20;1.07;;;1.07;;
25331;SDS011;13284;52.748;13.452;2023-07-20T11:31:47;0.70;;;0.70;;
25331;SDS011;13284;52.748;13.452;2023-07-20T11:34:14;0.80;;;0.80;;
25331;SDS011;13284;52.748;13.452;2023-07-20T11:36:44;1.20;;;1.10;;
25331;SDS011;13284;52.748;13.452;2023-07-20T11:39:15;1.00;;;1.00;;
25331;SDS011;13284;52.748;13.452;2023-07-20T11:41:47;0.97;;;0.80;;
25331;SDS011;13284;52.748;13.452;2023-07-20T11:44:18;0.80;;;0.80;;
25331;SDS011;13284;52.748;13.452;2023-07-20T11:49:42;0.70;;;0.70;;
25331;SDS011;13284;52.748;13.452;2023-07-20T11:52:13;0.80;;;0.80;;
25331;SDS011;13284;52.748;13.452;2023-07-20T11:54:41;0.87;;;0.80;;
25331;SDS011;13284;52.748;13.452;2023-07-20T11:57:07;1.37;;;0.90;;
25331;SDS011;13284;52.748;13.452;2023-07-20T12:02:22;1.10;;;0.93;;
25331;SDS011;13284;52.748;13.452;2023-07-20T12:04:50;0.80;;;0.80;;
25331;SDS011;13284;52.748;13.452;2023-07-20T12:07:17;0.90;;;0.90;;
25331;SDS011;13284;52.748;13.452;2023-07-20T12:09:43;0.90;;;0.90;;
25331;SDS011;13284;52.748;13.452;2023-07-20T12:12:10;0.63;;;0.63;;
25331;SDS011;13284;52.748;13.452;2023-07-20T12:14:39;2.37;;;0.70;;
25331;SDS011;13284;52.748;13.452;2023-07-20T12:17:04;2.47;;;1.00;;
25331;SDS011;13284;52.748;13.452;2023-07-20T12:19:37;2.67;;;0.80;;
25331;SDS011;13284;52.748;13.452;2023-07-20T12:22:04;4.00;;;1.37;;
25331;SDS011;13284;52.748;13.452;2023-07-20T12:24:30;0.70;;;0.70;;
25331;SDS011;13284;52.748;13.452;2023-07-20T12:26:56;0.70;;;0.70;;
25331;SDS011;13284;52.748;13.452;2023-07-20T12:29:23;0.70;;;0.70;;
25331;SDS011;13284;52.748;13.452;2023-07-20T12:31:48;1.30;;;0.50;;
25331;SDS011;13284;52.748;13.452;2023-07-20T12:34:14;0.63;;;0.50;;
25331;SDS011;13284;52.748;13.452;2023-07-20T12:36:40;1.10;;;0.57;;
25331;SDS011;13284;52.748;13.452;2023-07-20T12:39:05;1.63;;;0.60;;
25331;SDS011;13284;52.748;13.452;2023-07-20T12:41:30;2.77;;;0.80;;
25331;SDS011;13284;52.748;13.452;2023-07-20T12:43:56;1.47;;;1.23;;
25331;SDS011;13284;52.748;13.452;2023-07-20T12:46:23;0.67;;;0.43;;
25331;SDS011;13284;52.748;13.452;2023-07-20T12:48:49;1.50;;;0.60;;
25331;SDS011;13284;52.748;13.452;2023-07-20T12:51:14;1.40;;;0.60;;
25331;SDS011;13284;52.748;13.452;2023-07-20T12:53:40;1.33;;;0.57;;
25331;SDS011;13284;52.748;13.452;2023-07-20T12:56:05;0.70;;;0.70;;
25331;SDS011;13284;52.748;13.452;2023-07-20T12:58:31;0.80;;;0.70;;
25331;SDS011;13284;52.748;13.452;2023-07-20T13:00:57;3.00;;;0.97;;
25331;SDS011;13284;52.748;13.452;2023-07-20T13:03:22;0.80;;;0.80;;
25331;SDS011;13284;52.748;13.452;2023-07-20T13:05:48;0.77;;;0.50;;
25331;SDS011;13284;52.748;13.452;2023-07-20T13:08:14;1.07;;;0.77;;
25331;SDS011;13284;52.748;13.452;2023-07-20T13:10:40;1.33;;;0.60;;
25331;SDS011;13284;52.748;13.452;2023-07-20T13:13:06;0.70;;;0.70;;
25331;SDS011;13284;52.748;13.452;2023-07-20T13:15:32;0.53;;;0.53;;
25331;SDS011;13284;52.748;13.452;2023-07-20T13:18:05;0.80;;;0.80;;
25331;SDS011;13284;52.748;13.452;2023-07-20T13:20:31;0.90;;;0.90;;
25331;SDS011;13284;52.748;13.452;2023-07-20T13:22:57;0.93;;;0.70;;
25331;SDS011;13284;52.748;13.452;2023-07-20T13:25:22;2.10;;;0.87;;
25331;SDS011;13284;52.748;13.452;2023-07-20T13:27:48;1.20;;;1.20;;
25331;SDS011;13284;52.748;13.452;2023-07-20T13:30:13;2.80;;;1.40;;
25331;SDS011;13284;52.748;13.452;2023-07-20T13:32:45;1.37;;;0.90;;
25331;SDS011;13284;52.748;13.452;2023-07-20T13:35:13;2.73;;;0.80;;
25331;SDS011;13284;52.748;13.452;2023-07-20T13:37:39;1.57;;;0.63;;
25331;SDS011;13284;52.748;13.452;2023-07-20T13:40:05;1.63;;;0.93;;
25331;SDS011;13284;52.748;13.452;2023-07-20T13:42:32;1.23;;;1.03;;
25331;SDS011;13284;52.748;13.452;2023-07-20T13:44:57;0.70;;;0.70;;
25331;SDS011;13284;52.748;13.452;2023-07-20T13:47:23;2.07;;;1.90;;
25331;SDS011;13284;52.748;13.452;2023-07-20T13:49:49;2.60;;;0.93;;
25331;SDS011;13284;52.748;13.452;2023-07-20T13:52:14;0.97;;;0.77;;
25331;SDS011;13284;52.748;13.452;2023-07-20T13:54:40;0.90;;;0.90;;
25331;SDS011;13284;52.748;13.452;2023-07-20T13:57:06;1.03;;;0.70;;
25331;SDS011;13284;52.748;13.452;2023-07-20T13:59:31;1.17;;;0.63;;
25331;SDS011;13284;52.748;13.452;2023-07-20T14:01:57;0.80;;;0.80;;
25331;SDS011;13284;52.748;13.452;2023-07-20T14:04:22;0.70;;;0.70;;
25331;SDS011;13284;52.748;13.452;2023-07-20T14:06:48;0.70;;;0.70;;
25331;SDS011;13284;52.748;13.452;2023-07-20T14:09:14;1.13;;;0.80;;
25331;SDS011;13284;52.748;13.452;2023-07-20T14:11:40;1.37;;;0.97;;
25331;SDS011;13284;52.748;13.452;2023-07-20T14:14:06;1.50;;;0.90;;
25331;SDS011;13284;52.748;13.452;2023-07-20T14:16:31;1.27;;;1.17;;
25331;SDS011;13284;52.748;13.452;2023-07-20T14:18:57;0.90;;;0.90;;
25331;SDS011;13284;52.748;13.452;2023-07-20T14:21:23;1.80;;;1.30;;
25331;SDS011;13284;52.748;13.452;2023-07-20T14:23:50;2.90;;;1.30;;
25331;SDS011;13284;52.748;13.452;2023-07-20T14:26:17;1.03;;;0.77;;
25331;SDS011;13284;52.748;13.452;2023-07-20T14:28:42;1.00;;;0.90;;
25331;SDS011;13284;52.748;13.452;2023-07-20T14:31:08;1.03;;;0.90;;
25331;SDS011;13284;52.748;13.452;2023-07-20T14:33:33;2.03;;;1.00;;
25331;SDS011;13284;52.748;13.452;2023-07-20T14:36:00;1.37;;;1.27;;
25331;SDS011;13284;52.748;13.452;2023-07-20T14:38:27;1.00;;;1.00;;
25331;SDS011;13284;52.748;13.452;2023-07-20T14:40:53;1.53;;;0.90;;
25331;SDS011;13284;52.748;13.452;2023-07-20T14:43:19;1.10;;;1.00;;
25331;SDS011;13284;52.748;13.452;2023-07-20T14:45:45;1.10;;;0.97;;
25331;SDS011;13284;52.748;13.452;2023-07-20T14:48:10;3.53;;;0.50;;